Shin'ai Maru — JD3307 — position and weather

sailwx.info

Track history (hours):
 
Tides and Currents Weather Stations Pressure Air Temp Water Temp Dewpoint Dewpoint Depression Visibility Wind Speed Wind Dir Waves Ship Positions

Shin'ai Maru

Last reported at 2017-Nov-19 08:18 UTC. Time now 2017-Nov-22 16:39 UTC.
Position N 35°40' E 139°57'.

Length 74 m; draft 4.7 m.

Type: Cargo ship. MMSI: 431003187.

Date/timePositionNaut miles runAvg speedWind from/ knotsBaromVisibWave heightAir tempDewpointWater temp
2017-Nov-19 08:18N 35°40' E 139°57'710.9
2017-Nov-19 07:40N 35°34' E 139°56'213.1
2017-Nov-19 07:30N 35°32' E 139°54'713.0
2017-Nov-19 07:00N 35°27' E 139°49'612.9
2017-Nov-19 06:30N 35°21' E 139°45'612.2
2017-Nov-19 05:59N 35°15' E 139°47'612.5
2017-Nov-19 05:30N 35°09' E 139°46'612.0
2017-Nov-19 05:00N 35°05' E 139°41'233 9.6
2017-Nov-18 04:36N 34°27' E 135°01'213.8
2017-Nov-18 04:30N 34°29' E 135°01'714.0
2017-Nov-18 04:00N 34°35' E 135°03'13 1.2
2017-Nov-17 17:02N 34°41' E 134°49'2 0.1
2017-Nov-17 05:53N 34°40' E 134°50'511.4
2017-Nov-17 05:29N 34°37' E 134°54'611.5
2017-Nov-17 04:59N 34°37' E 135°01'510.6
2017-Nov-17 04:30N 34°35' E 135°07'612.8
2017-Nov-17 04:00N 34°34' E 135°15'8 1.3
2017-Nov-16 21:23N 34°31' E 135°24'0 0.0
2017-Nov-16 05:45N 34°31' E 135°24'1 5.5
2017-Nov-16 05:29N 34°32' E 135°23'612.4
2017-Nov-16 05:00N 34°33' E 135°16'713.5
2017-Nov-16 04:29N 34°34' E 135°07'  
2017-Nov-11 09:46N 35°02' E 139°29'313.3
2017-Nov-11 09:30N 35°04' E 139°33'713.6
2017-Nov-11 09:00N 35°07' E 139°40'713.4
2017-Nov-11 08:30N 35°12' E 139°45'612.3
2017-Nov-11 08:00N 35°18' E 139°44'612.4
2017-Nov-11 07:31N 35°24' E 139°43'  
Track history (hours):
 
Tides and Currents Weather Stations Pressure Air Temp Water Temp Dewpoint Dewpoint Depression Visibility Wind Speed Wind Dir Waves Ship Positions

Shin'ai Maru

Last reported at 2017-Nov-19 08:18 UTC. Time now 2017-Nov-22 16:39 UTC.
Position N 35°40' E 139°57'.

Length 74 m; draft 4.7 m.

Type: Cargo ship. MMSI: 431003187.

Date/timePositionNaut miles runAvg speedWind from/ knotsBaromVisibWave heightAir tempDewpointWater temp
2017-Nov-19 08:18N 35°40' E 139°57'710.9
2017-Nov-19 07:40N 35°34' E 139°56'213.1
2017-Nov-19 07:30N 35°32' E 139°54'713.0
2017-Nov-19 07:00N 35°27' E 139°49'612.9
2017-Nov-19 06:30N 35°21' E 139°45'612.2
2017-Nov-19 05:59N 35°15' E 139°47'612.5
2017-Nov-19 05:30N 35°09' E 139°46'612.0
2017-Nov-19 05:00N 35°05' E 139°41'233 9.6
2017-Nov-18 04:36N 34°27' E 135°01'213.8
2017-Nov-18 04:30N 34°29' E 135°01'714.0
2017-Nov-18 04:00N 34°35' E 135°03'13 1.2
2017-Nov-17 17:02N 34°41' E 134°49'2 0.1
2017-Nov-17 05:53N 34°40' E 134°50'511.4
2017-Nov-17 05:29N 34°37' E 134°54'611.5
2017-Nov-17 04:59N 34°37' E 135°01'510.6
2017-Nov-17 04:30N 34°35' E 135°07'612.8
2017-Nov-17 04:00N 34°34' E 135°15'8 1.3
2017-Nov-16 21:23N 34°31' E 135°24'0 0.0
2017-Nov-16 05:45N 34°31' E 135°24'1 5.5
2017-Nov-16 05:29N 34°32' E 135°23'612.4
2017-Nov-16 05:00N 34°33' E 135°16'713.5
2017-Nov-16 04:29N 34°34' E 135°07'  
2017-Nov-11 09:46N 35°02' E 139°29'313.3
2017-Nov-11 09:30N 35°04' E 139°33'713.6
2017-Nov-11 09:00N 35°07' E 139°40'713.4
2017-Nov-11 08:30N 35°12' E 139°45'612.3
2017-Nov-11 08:00N 35°18' E 139°44'612.4
2017-Nov-11 07:31N 35°24' E 139°43'  

Dump ship's entire track history